sensor_id;sensor_type;location;lat;lon;timestamp;P1;durP1;ratioP1;P2;durP2;ratioP2
74177;SDS011;62540;48.456;-4.456;2022-10-16T00:01:37;0.00;;;0.00;;
74177;SDS011;62540;48.456;-4.456;2022-10-16T00:04:03;0.25;;;0.00;;
74177;SDS011;62540;48.456;-4.456;2022-10-16T00:06:29;0.00;;;0.00;;
74177;SDS011;62540;48.456;-4.456;2022-10-16T00:08:55;0.00;;;0.00;;
74177;SDS011;62540;48.456;-4.456;2022-10-16T00:11:25;0.00;;;0.00;;
74177;SDS011;62540;48.456;-4.456;2022-10-16T00:13:55;0.75;;;0.75;;
74177;SDS011;62540;48.456;-4.456;2022-10-16T00:16:23;0.00;;;0.00;;
74177;SDS011;62540;48.456;-4.456;2022-10-16T00:18:48;0.50;;;0.00;;
74177;SDS011;62540;48.456;-4.456;2022-10-16T00:21:18;0.00;;;0.00;;
74177;SDS011;62540;48.456;-4.456;2022-10-16T00:23:45;0.00;;;0.00;;
74177;SDS011;62540;48.456;-4.456;2022-10-16T00:26:18;0.50;;;0.00;;
74177;SDS011;62540;48.456;-4.456;2022-10-16T00:28:47;0.75;;;0.00;;
74177;SDS011;62540;48.456;-4.456;2022-10-16T00:31:18;0.00;;;0.00;;
74177;SDS011;62540;48.456;-4.456;2022-10-16T00:33:45;3.00;;;1.00;;
74177;SDS011;62540;48.456;-4.456;2022-10-16T00:36:13;0.00;;;0.00;;
74177;SDS011;62540;48.456;-4.456;2022-10-16T00:38:40;1.00;;;0.00;;
74177;SDS011;62540;48.456;-4.456;2022-10-16T00:41:07;1.25;;;0.00;;
74177;SDS011;62540;48.456;-4.456;2022-10-16T00:51:31;1.00;;;0.00;;
74177;SDS011;62540;48.456;-4.456;2022-10-16T00:53:59;1.00;;;0.00;;
74177;SDS011;62540;48.456;-4.456;2022-10-16T00:56:27;1.00;;;0.00;;
74177;SDS011;62540;48.456;-4.456;2022-10-16T00:58:52;1.00;;;0.00;;
74177;SDS011;62540;48.456;-4.456;2022-10-16T01:01:18;0.00;;;0.00;;
74177;SDS011;62540;48.456;-4.456;2022-10-16T01:03:44;2.75;;;0.00;;
74177;SDS011;62540;48.456;-4.456;2022-10-16T01:06:23;0.00;;;0.00;;
74177;SDS011;62540;48.456;-4.456;2022-10-16T01:11:53;0.00;;;0.00;;
74177;SDS011;62540;48.456;-4.456;2022-10-16T01:14:28;0.00;;;0.00;;
74177;SDS011;62540;48.456;-4.456;2022-10-16T01:17:04;0.00;;;0.00;;
74177;SDS011;62540;48.456;-4.456;2022-10-16T01:20:01;0.00;;;0.00;;
74177;SDS011;62540;48.456;-4.456;2022-10-16T01:22:33;1.00;;;0.00;;
74177;SDS011;62540;48.456;-4.456;2022-10-16T01:25:04;0.00;;;0.00;;
74177;SDS011;62540;48.456;-4.456;2022-10-16T01:27:34;0.00;;;0.00;;
74177;SDS011;62540;48.456;-4.456;2022-10-16T01:32:46;1.75;;;0.00;;
74177;SDS011;62540;48.456;-4.456;2022-10-16T01:35:18;0.00;;;0.00;;
74177;SDS011;62540;48.456;-4.456;2022-10-16T01:38:03;0.00;;;0.00;;
74177;SDS011;62540;48.456;-4.456;2022-10-16T01:40:34;0.00;;;0.00;;
74177;SDS011;62540;48.456;-4.456;2022-10-16T01:43:05;0.00;;;0.00;;
74177;SDS011;62540;48.456;-4.456;2022-10-16T01:45:34;0.00;;;0.00;;
74177;SDS011;62540;48.456;-4.456;2022-10-16T01:48:01;0.00;;;0.00;;
74177;SDS011;62540;48.456;-4.456;2022-10-16T01:50:30;0.00;;;0.00;;
74177;SDS011;62540;48.456;-4.456;2022-10-16T01:52:57;0.00;;;0.00;;
74177;SDS011;62540;48.456;-4.456;2022-10-16T01:55:28;1.00;;;0.00;;
74177;SDS011;62540;48.456;-4.456;2022-10-16T01:57:58;0.00;;;0.00;;
74177;SDS011;62540;48.456;-4.456;2022-10-16T02:00:26;0.00;;;0.00;;
74177;SDS011;62540;48.456;-4.456;2022-10-16T02:02:54;0.00;;;0.00;;
74177;SDS011;62540;48.456;-4.456;2022-10-16T02:08:19;1.00;;;0.00;;
74177;SDS011;62540;48.456;-4.456;2022-10-16T02:10:45;0.25;;;0.00;;
74177;SDS011;62540;48.456;-4.456;2022-10-16T02:13:12;0.00;;;0.00;;
74177;SDS011;62540;48.456;-4.456;2022-10-16T02:15:39;0.00;;;0.00;;
74177;SDS011;62540;48.456;-4.456;2022-10-16T02:18:05;0.00;;;0.00;;
74177;SDS011;62540;48.456;-4.456;2022-10-16T02:20:33;1.00;;;0.75;;
74177;SDS011;62540;48.456;-4.456;2022-10-16T02:23:08;0.00;;;0.00;;
74177;SDS011;62540;48.456;-4.456;2022-10-16T02:25:44;0.25;;;0.00;;
74177;SDS011;62540;48.456;-4.456;2022-10-16T02:28:15;0.00;;;0.00;;
74177;SDS011;62540;48.456;-4.456;2022-10-16T02:33:13;0.00;;;0.00;;
74177;SDS011;62540;48.456;-4.456;2022-10-16T02:35:40;0.00;;;0.00;;
74177;SDS011;62540;48.456;-4.456;2022-10-16T02:38:08;0.00;;;0.00;;
74177;SDS011;62540;48.456;-4.456;2022-10-16T02:40:34;0.00;;;0.00;;
74177;SDS011;62540;48.456;-4.456;2022-10-16T02:43:02;0.00;;;0.00;;
74177;SDS011;62540;48.456;-4.456;2022-10-16T02:45:29;0.00;;;0.00;;
74177;SDS011;62540;48.456;-4.456;2022-10-16T02:47:54;0.00;;;0.00;;
74177;SDS011;62540;48.456;-4.456;2022-10-16T02:50:20;1.00;;;0.00;;
74177;SDS011;62540;48.456;-4.456;2022-10-16T02:52:45;0.25;;;0.00;;
74177;SDS011;62540;48.456;-4.456;2022-10-16T02:55:11;1.25;;;0.00;;
74177;SDS011;62540;48.456;-4.456;2022-10-16T02:57:36;1.00;;;0.00;;
74177;SDS011;62540;48.456;-4.456;2022-10-16T03:00:03;0.00;;;0.00;;
74177;SDS011;62540;48.456;-4.456;2022-10-16T03:02:30;0.00;;;0.00;;
74177;SDS011;62540;48.456;-4.456;2022-10-16T03:04:55;0.00;;;0.00;;
74177;SDS011;62540;48.456;-4.456;2022-10-16T03:07:21;0.00;;;0.00;;
74177;SDS011;62540;48.456;-4.456;2022-10-16T03:09:46;0.75;;;0.00;;
74177;SDS011;62540;48.456;-4.456;2022-10-16T03:12:11;0.00;;;0.00;;
74177;SDS011;62540;48.456;-4.456;2022-10-16T03:14:37;0.00;;;0.00;;
74177;SDS011;62540;48.456;-4.456;2022-10-16T03:17:04;0.00;;;0.00;;
74177;SDS011;62540;48.456;-4.456;2022-10-16T03:19:30;0.00;;;0.00;;
74177;SDS011;62540;48.456;-4.456;2022-10-16T03:21:55;0.00;;;0.00;;
74177;SDS011;62540;48.456;-4.456;2022-10-16T03:24:20;1.00;;;0.00;;
74177;SDS011;62540;48.456;-4.456;2022-10-16T03:26:46;0.00;;;0.00;;
74177;SDS011;62540;48.456;-4.456;2022-10-16T03:29:11;0.00;;;0.00;;
74177;SDS011;62540;48.456;-4.456;2022-10-16T03:31:37;0.00;;;0.00;;
74177;SDS011;62540;48.456;-4.456;2022-10-16T03:34:02;0.00;;;0.00;;
74177;SDS011;62540;48.456;-4.456;2022-10-16T03:36:28;0.00;;;0.00;;
74177;SDS011;62540;48.456;-4.456;2022-10-16T03:38:53;0.50;;;0.00;;
74177;SDS011;62540;48.456;-4.456;2022-10-16T03:41:19;1.00;;;0.00;;
74177;SDS011;62540;48.456;-4.456;2022-10-16T03:43:44;0.25;;;0.00;;
74177;SDS011;62540;48.456;-4.456;2022-10-16T03:46:09;0.00;;;0.00;;
74177;SDS011;62540;48.456;-4.456;2022-10-16T03:48:35;0.00;;;0.00;;
74177;SDS011;62540;48.456;-4.456;2022-10-16T03:51:00;0.00;;;0.00;;
74177;SDS011;62540;48.456;-4.456;2022-10-16T03:53:26;0.00;;;0.00;;
74177;SDS011;62540;48.456;-4.456;2022-10-16T03:55:51;0.00;;;0.00;;
74177;SDS011;62540;48.456;-4.456;2022-10-16T03:58:16;0.00;;;0.00;;
74177;SDS011;62540;48.456;-4.456;2022-10-16T04:00:43;0.00;;;0.00;;
74177;SDS011;62540;48.456;-4.456;2022-10-16T04:03:09;0.00;;;0.00;;
74177;SDS011;62540;48.456;-4.456;2022-10-16T04:05:35;0.50;;;0.00;;
74177;SDS011;62540;48.456;-4.456;2022-10-16T04:08:01;0.00;;;0.00;;
74177;SDS011;62540;48.456;-4.456;2022-10-16T04:10:26;0.00;;;0.00;;
74177;SDS011;62540;48.456;-4.456;2022-10-16T04:12:52;0.00;;;0.00;;
74177;SDS011;62540;48.456;-4.456;2022-10-16T04:15:19;0.00;;;0.00;;
74177;SDS011;62540;48.456;-4.456;2022-10-16T04:17:45;1.00;;;0.00;;
74177;SDS011;62540;48.456;-4.456;2022-10-16T04:20:10;0.00;;;0.00;;
74177;SDS011;62540;48.456;-4.456;2022-10-16T04:22:35;0.00;;;0.00;;
74177;SDS011;62540;48.456;-4.456;2022-10-16T04:25:01;0.00;;;0.00;;
74177;SDS011;62540;48.456;-4.456;2022-10-16T04:27:26;0.00;;;0.00;;
74177;SDS011;62540;48.456;-4.456;2022-10-16T04:29:53;0.25;;;0.00;;
74177;SDS011;62540;48.456;-4.456;2022-10-16T04:32:18;0.00;;;0.00;;
74177;SDS011;62540;48.456;-4.456;2022-10-16T04:34:44;0.00;;;0.00;;
74177;SDS011;62540;48.456;-4.456;2022-10-16T04:37:09;1.00;;;0.00;;
74177;SDS011;62540;48.456;-4.456;2022-10-16T04:39:34;0.75;;;0.25;;
74177;SDS011;62540;48.456;-4.456;2022-10-16T04:42:00;0.25;;;0.00;;
74177;SDS011;62540;48.456;-4.456;2022-10-16T04:44:25;1.00;;;0.75;;
74177;SDS011;62540;48.456;-4.456;2022-10-16T04:46:51;2.50;;;2.00;;
74177;SDS011;62540;48.456;-4.456;2022-10-16T04:49:16;7.75;;;5.75;;
74177;SDS011;62540;48.456;-4.456;2022-10-16T04:51:42;9.00;;;6.50;;
74177;SDS011;62540;48.456;-4.456;2022-10-16T04:54:08;10.00;;;7.50;;
74177;SDS011;62540;48.456;-4.456;2022-10-16T04:56:34;3.75;;;3.00;;
74177;SDS011;62540;48.456;-4.456;2022-10-16T04:59:05;5.00;;;4.50;;
74177;SDS011;62540;48.456;-4.456;2022-10-16T05:01:30;4.00;;;2.25;;
74177;SDS011;62540;48.456;-4.456;2022-10-16T05:03:56;4.25;;;3.00;;
74177;SDS011;62540;48.456;-4.456;2022-10-16T05:06:21;2.50;;;2.25;;
74177;SDS011;62540;48.456;-4.456;2022-10-16T05:08:47;3.00;;;3.00;;
74177;SDS011;62540;48.456;-4.456;2022-10-16T05:11:12;3.25;;;3.25;;
74177;SDS011;62540;48.456;-4.456;2022-10-16T05:13:37;3.25;;;2.00;;
74177;SDS011;62540;48.456;-4.456;2022-10-16T05:16:03;4.50;;;2.25;;
74177;SDS011;62540;48.456;-4.456;2022-10-16T05:18:28;4.50;;;2.00;;
74177;SDS011;62540;48.456;-4.456;2022-10-16T05:20:54;1.25;;;1.25;;
74177;SDS011;62540;48.456;-4.456;2022-10-16T05:23:19;1.00;;;0.75;;
74177;SDS011;62540;48.456;-4.456;2022-10-16T05:25:51;2.00;;;1.00;;
74177;SDS011;62540;48.456;-4.456;2022-10-16T05:28:20;1.25;;;0.25;;
74177;SDS011;62540;48.456;-4.456;2022-10-16T05:30:46;1.00;;;1.00;;
74177;SDS011;62540;48.456;-4.456;2022-10-16T05:33:11;2.25;;;1.50;;
74177;SDS011;62540;48.456;-4.456;2022-10-16T05:35:37;8.00;;;5.75;;
74177;SDS011;62540;48.456;-4.456;2022-10-16T05:38:02;10.25;;;8.25;;
74177;SDS011;62540;48.456;-4.456;2022-10-16T05:40:27;6.00;;;4.00;;
74177;SDS011;62540;48.456;-4.456;2022-10-16T05:42:56;4.25;;;4.00;;
74177;SDS011;62540;48.456;-4.456;2022-10-16T05:45:21;7.25;;;7.00;;
74177;SDS011;62540;48.456;-4.456;2022-10-16T05:47:47;4.75;;;4.00;;
74177;SDS011;62540;48.456;-4.456;2022-10-16T05:50:12;5.00;;;4.00;;
74177;SDS011;62540;48.456;-4.456;2022-10-16T05:52:38;2.75;;;2.75;;
74177;SDS011;62540;48.456;-4.456;2022-10-16T05:55:03;2.00;;;2.00;;
74177;SDS011;62540;48.456;-4.456;2022-10-16T05:57:29;3.00;;;3.00;;
74177;SDS011;62540;48.456;-4.456;2022-10-16T05:59:54;3.00;;;2.25;;
74177;SDS011;62540;48.456;-4.456;2022-10-16T06:02:20;3.00;;;2.50;;
74177;SDS011;62540;48.456;-4.456;2022-10-16T06:04:46;1.25;;;1.00;;
74177;SDS011;62540;48.456;-4.456;2022-10-16T06:07:11;2.50;;;2.00;;
74177;SDS011;62540;48.456;-4.456;2022-10-16T06:09:37;1.00;;;1.00;;
74177;SDS011;62540;48.456;-4.456;2022-10-16T06:12:02;1.75;;;1.25;;
74177;SDS011;62540;48.456;-4.456;2022-10-16T06:14:28;1.00;;;1.00;;
74177;SDS011;62540;48.456;-4.456;2022-10-16T06:16:53;2.00;;;1.00;;
74177;SDS011;62540;48.456;-4.456;2022-10-16T06:19:19;2.00;;;0.75;;
74177;SDS011;62540;48.456;-4.456;2022-10-16T06:21:44;1.00;;;1.00;;
74177;SDS011;62540;48.456;-4.456;2022-10-16T06:24:10;1.00;;;1.00;;
74177;SDS011;62540;48.456;-4.456;2022-10-16T06:26:35;0.00;;;0.00;;
74177;SDS011;62540;48.456;-4.456;2022-10-16T06:29:01;0.25;;;0.25;;
74177;SDS011;62540;48.456;-4.456;2022-10-16T06:31:27;1.50;;;1.00;;
74177;SDS011;62540;48.456;-4.456;2022-10-16T06:33:56;0.00;;;0.00;;
74177;SDS011;62540;48.456;-4.456;2022-10-16T06:36:22;2.00;;;1.00;;
74177;SDS011;62540;48.456;-4.456;2022-10-16T06:38:48;1.00;;;1.00;;
74177;SDS011;62540;48.456;-4.456;2022-10-16T06:41:15;1.00;;;1.00;;
74177;SDS011;62540;48.456;-4.456;2022-10-16T06:43:42;0.75;;;0.75;;
74177;SDS011;62540;48.456;-4.456;2022-10-16T06:46:10;2.25;;;1.25;;
74177;SDS011;62540;48.456;-4.456;2022-10-16T06:48:37;1.50;;;1.50;;
74177;SDS011;62540;48.456;-4.456;2022-10-16T06:51:04;3.50;;;1.00;;
74177;SDS011;62540;48.456;-4.456;2022-10-16T06:53:38;2.00;;;2.00;;
74177;SDS011;62540;48.456;-4.456;2022-10-16T06:56:09;2.00;;;2.00;;
74177;SDS011;62540;48.456;-4.456;2022-10-16T06:58:39;2.00;;;2.00;;
74177;SDS011;62540;48.456;-4.456;2022-10-16T07:01:05;1.75;;;1.50;;
74177;SDS011;62540;48.456;-4.456;2022-10-16T07:03:31;5.50;;;2.25;;
74177;SDS011;62540;48.456;-4.456;2022-10-16T07:05:57;4.00;;;2.75;;
74177;SDS011;62540;48.456;-4.456;2022-10-16T07:08:26;2.50;;;2.00;;
74177;SDS011;62540;48.456;-4.456;2022-10-16T07:10:57;3.00;;;2.50;;
74177;SDS011;62540;48.456;-4.456;2022-10-16T07:13:24;1.00;;;0.50;;
74177;SDS011;62540;48.456;-4.456;2022-10-16T07:15:50;3.25;;;2.00;;
74177;SDS011;62540;48.456;-4.456;2022-10-16T07:18:15;4.25;;;2.00;;
74177;SDS011;62540;48.456;-4.456;2022-10-16T07:20:40;3.00;;;2.00;;
74177;SDS011;62540;48.456;-4.456;2022-10-16T07:23:06;4.00;;;3.00;;
74177;SDS011;62540;48.456;-4.456;2022-10-16T07:25:31;2.75;;;2.75;;
74177;SDS011;62540;48.456;-4.456;2022-10-16T07:27:57;3.00;;;3.00;;
74177;SDS011;62540;48.456;-4.456;2022-10-16T07:30:22;5.00;;;4.00;;
74177;SDS011;62540;48.456;-4.456;2022-10-16T07:32:48;3.50;;;3.00;;
74177;SDS011;62540;48.456;-4.456;2022-10-16T07:35:13;2.25;;;2.00;;
74177;SDS011;62540;48.456;-4.456;2022-10-16T07:37:38;2.00;;;1.00;;
74177;SDS011;62540;48.456;-4.456;2022-10-16T07:40:04;1.00;;;1.00;;
74177;SDS011;62540;48.456;-4.456;2022-10-16T07:42:30;2.50;;;1.50;;
74177;SDS011;62540;48.456;-4.456;2022-10-16T07:44:55;2.00;;;2.00;;
74177;SDS011;62540;48.456;-4.456;2022-10-16T07:47:21;2.25;;;2.00;;
74177;SDS011;62540;48.456;-4.456;2022-10-16T07:49:46;2.00;;;2.00;;
74177;SDS011;62540;48.456;-4.456;2022-10-16T07:52:12;1.25;;;1.00;;
74177;SDS011;62540;48.456;-4.456;2022-10-16T07:54:37;1.00;;;1.00;;
74177;SDS011;62540;48.456;-4.456;2022-10-16T07:57:02;1.25;;;1.00;;
74177;SDS011;62540;48.456;-4.456;2022-10-16T07:59:28;2.00;;;2.00;;
74177;SDS011;62540;48.456;-4.456;2022-10-16T08:01:53;3.50;;;1.50;;
74177;SDS011;62540;48.456;-4.456;2022-10-16T08:04:19;2.00;;;2.00;;
74177;SDS011;62540;48.456;-4.456;2022-10-16T08:06:44;2.75;;;2.00;;
74177;SDS011;62540;48.456;-4.456;2022-10-16T08:09:09;2.00;;;2.00;;
74177;SDS011;62540;48.456;-4.456;2022-10-16T08:11:35;3.00;;;3.00;;
74177;SDS011;62540;48.456;-4.456;2022-10-16T08:14:00;3.25;;;2.00;;
74177;SDS011;62540;48.456;-4.456;2022-10-16T08:16:26;3.75;;;3.00;;
74177;SDS011;62540;48.456;-4.456;2022-10-16T08:18:51;2.00;;;1.75;;
74177;SDS011;62540;48.456;-4.456;2022-10-16T08:21:17;3.25;;;3.00;;
74177;SDS011;62540;48.456;-4.456;2022-10-16T08:23:45;2.25;;;1.00;;
74177;SDS011;62540;48.456;-4.456;2022-10-16T08:26:11;3.75;;;2.00;;
74177;SDS011;62540;48.456;-4.456;2022-10-16T08:28:38;1.50;;;1.00;;
74177;SDS011;62540;48.456;-4.456;2022-10-16T08:33:40;3.00;;;1.25;;
74177;SDS011;62540;48.456;-4.456;2022-10-16T08:36:09;1.00;;;1.00;;
74177;SDS011;62540;48.456;-4.456;2022-10-16T08:38:35;1.50;;;1.00;;
74177;SDS011;62540;48.456;-4.456;2022-10-16T08:47:02;0.75;;;0.75;;
74177;SDS011;62540;48.456;-4.456;2022-10-16T08:49:37;1.00;;;1.00;;
74177;SDS011;62540;48.456;-4.456;2022-10-16T08:52:10;1.75;;;1.75;;
74177;SDS011;62540;48.456;-4.456;2022-10-16T08:54:41;2.00;;;2.00;;
74177;SDS011;62540;48.456;-4.456;2022-10-16T08:57:13;0.50;;;0.25;;
74177;SDS011;62540;48.456;-4.456;2022-10-16T08:59:42;1.00;;;1.00;;
74177;SDS011;62540;48.456;-4.456;2022-10-16T09:02:44;2.75;;;2.00;;
74177;SDS011;62540;48.456;-4.456;2022-10-16T09:07:43;4.50;;;2.25;;
74177;SDS011;62540;48.456;-4.456;2022-10-16T09:13:19;3.00;;;1.75;;
74177;SDS011;62540;48.456;-4.456;2022-10-16T09:15:53;0.75;;;0.75;;
74177;SDS011;62540;48.456;-4.456;2022-10-16T09:23:40;2.00;;;1.00;;
74177;SDS011;62540;48.456;-4.456;2022-10-16T09:26:08;0.00;;;0.00;;
74177;SDS011;62540;48.456;-4.456;2022-10-16T09:28:35;0.00;;;0.00;;
74177;SDS011;62540;48.456;-4.456;2022-10-16T09:31:01;0.25;;;0.00;;
74177;SDS011;62540;48.456;-4.456;2022-10-16T09:33:32;0.25;;;0.25;;
74177;SDS011;62540;48.456;-4.456;2022-10-16T09:36:00;0.00;;;0.00;;
74177;SDS011;62540;48.456;-4.456;2022-10-16T09:38:30;0.00;;;0.00;;
74177;SDS011;62540;48.456;-4.456;2022-10-16T09:41:19;0.00;;;0.00;;
74177;SDS011;62540;48.456;-4.456;2022-10-16T09:48:53;0.00;;;0.00;;
74177;SDS011;62540;48.456;-4.456;2022-10-16T09:51:28;0.25;;;0.00;;
74177;SDS011;62540;48.456;-4.456;2022-10-16T09:53:55;0.00;;;0.00;;
74177;SDS011;62540;48.456;-4.456;2022-10-16T09:56:37;1.00;;;0.00;;
74177;SDS011;62540;48.456;-4.456;2022-10-16T09:59:13;0.00;;;0.00;;
74177;SDS011;62540;48.456;-4.456;2022-10-16T10:01:41;0.50;;;0.00;;
74177;SDS011;62540;48.456;-4.456;2022-10-16T10:04:09;0.00;;;0.00;;
74177;SDS011;62540;48.456;-4.456;2022-10-16T10:06:51;0.00;;;0.00;;
74177;SDS011;62540;48.456;-4.456;2022-10-16T10:11:53;0.75;;;0.25;;
74177;SDS011;62540;48.456;-4.456;2022-10-16T10:14:23;1.25;;;1.00;;
74177;SDS011;62540;48.456;-4.456;2022-10-16T10:16:52;0.00;;;0.00;;
74177;SDS011;62540;48.456;-4.456;2022-10-16T10:19:53;0.00;;;0.00;;
74177;SDS011;62540;48.456;-4.456;2022-10-16T10:46:57;1.75;;;1.25;;
74177;SDS011;62540;48.456;-4.456;2022-10-16T10:52:12;1.25;;;0.50;;
74177;SDS011;62540;48.456;-4.456;2022-10-16T11:03:13;0.25;;;0.25;;
74177;SDS011;62540;48.456;-4.456;2022-10-16T11:06:00;0.00;;;0.00;;
74177;SDS011;62540;48.456;-4.456;2022-10-16T11:08:52;0.00;;;0.00;;
74177;SDS011;62540;48.456;-4.456;2022-10-16T11:16:42;2.25;;;2.25;;
74177;SDS011;62540;48.456;-4.456;2022-10-16T11:21:51;2.75;;;1.75;;
74177;SDS011;62540;48.456;-4.456;2022-10-16T11:24:34;2.00;;;0.50;;
74177;SDS011;62540;48.456;-4.456;2022-10-16T11:27:08;1.00;;;1.00;;
74177;SDS011;62540;48.456;-4.456;2022-10-16T11:29:39;2.00;;;1.00;;
74177;SDS011;62540;48.456;-4.456;2022-10-16T11:32:33;1.50;;;0.50;;
74177;SDS011;62540;48.456;-4.456;2022-10-16T11:35:17;0.25;;;0.00;;
74177;SDS011;62540;48.456;-4.456;2022-10-16T11:37:47;1.00;;;1.00;;
74177;SDS011;62540;48.456;-4.456;2022-10-16T11:40:31;2.00;;;1.25;;
74177;SDS011;62540;48.456;-4.456;2022-10-16T11:43:02;0.50;;;0.50;;
74177;SDS011;62540;48.456;-4.456;2022-10-16T11:45:45;0.00;;;0.00;;
74177;SDS011;62540;48.456;-4.456;2022-10-16T11:48:20;1.00;;;0.75;;
74177;SDS011;62540;48.456;-4.456;2022-10-16T11:51:06;0.50;;;0.50;;
74177;SDS011;62540;48.456;-4.456;2022-10-16T11:56:42;0.00;;;0.00;;
74177;SDS011;62540;48.456;-4.456;2022-10-16T11:59:18;0.25;;;0.25;;
74177;SDS011;62540;48.456;-4.456;2022-10-16T12:01:47;0.25;;;0.00;;
74177;SDS011;62540;48.456;-4.456;2022-10-16T12:04:22;0.00;;;0.00;;
74177;SDS011;62540;48.456;-4.456;2022-10-16T12:07:14;0.00;;;0.00;;
74177;SDS011;62540;48.456;-4.456;2022-10-16T12:09:44;0.00;;;0.00;;
74177;SDS011;62540;48.456;-4.456;2022-10-16T12:15:03;0.00;;;0.00;;
74177;SDS011;62540;48.456;-4.456;2022-10-16T12:17:46;0.00;;;0.00;;
74177;SDS011;62540;48.456;-4.456;2022-10-16T12:22:37;0.75;;;0.00;;
74177;SDS011;62540;48.456;-4.456;2022-10-16T12:28:32;0.00;;;0.00;;
74177;SDS011;62540;48.456;-4.456;2022-10-16T12:30:41;0.00;;;0.00;;
74177;SDS011;62540;48.456;-4.456;2022-10-16T12:33:42;0.00;;;0.00;;
74177;SDS011;62540;48.456;-4.456;2022-10-16T12:38:48;0.75;;;0.00;;
74177;SDS011;62540;48.456;-4.456;2022-10-16T12:43:55;0.00;;;0.00;;
74177;SDS011;62540;48.456;-4.456;2022-10-16T12:51:39;0.00;;;0.00;;
74177;SDS011;62540;48.456;-4.456;2022-10-16T12:59:29;0.00;;;0.00;;
74177;SDS011;62540;48.456;-4.456;2022-10-16T13:04:53;0.00;;;0.00;;
74177;SDS011;62540;48.456;-4.456;2022-10-16T13:27:01;0.00;;;0.00;;
74177;SDS011;62540;48.456;-4.456;2022-10-16T13:29:33;0.00;;;0.00;;
74177;SDS011;62540;48.456;-4.456;2022-10-16T13:31:59;0.00;;;0.00;;
74177;SDS011;62540;48.456;-4.456;2022-10-16T13:34:31;0.00;;;0.00;;
74177;SDS011;62540;48.456;-4.456;2022-10-16T13:36:57;1.00;;;1.00;;
74177;SDS011;62540;48.456;-4.456;2022-10-16T13:39:23;2.00;;;1.00;;
74177;SDS011;62540;48.456;-4.456;2022-10-16T13:42:03;0.00;;;0.00;;
74177;SDS011;62540;48.456;-4.456;2022-10-16T13:44:40;1.00;;;1.00;;
74177;SDS011;62540;48.456;-4.456;2022-10-16T13:47:19;2.00;;;2.00;;
74177;SDS011;62540;48.456;-4.456;2022-10-16T13:49:46;2.00;;;2.00;;
74177;SDS011;62540;48.456;-4.456;2022-10-16T13:52:19;1.00;;;1.00;;
74177;SDS011;62540;48.456;-4.456;2022-10-16T13:54:46;1.00;;;1.00;;
74177;SDS011;62540;48.456;-4.456;2022-10-16T13:57:13;0.25;;;0.00;;
74177;SDS011;62540;48.456;-4.456;2022-10-16T13:59:39;1.00;;;0.50;;
74177;SDS011;62540;48.456;-4.456;2022-10-16T14:02:52;2.00;;;1.00;;
74177;SDS011;62540;48.456;-4.456;2022-10-16T14:04:54;1.00;;;1.00;;
74177;SDS011;62540;48.456;-4.456;2022-10-16T14:07:25;0.75;;;0.75;;
74177;SDS011;62540;48.456;-4.456;2022-10-16T14:09:53;1.25;;;1.00;;
74177;SDS011;62540;48.456;-4.456;2022-10-16T14:12:19;2.00;;;2.00;;
74177;SDS011;62540;48.456;-4.456;2022-10-16T14:14:51;1.25;;;1.00;;
74177;SDS011;62540;48.456;-4.456;2022-10-16T14:19:50;3.00;;;1.25;;
74177;SDS011;62540;48.456;-4.456;2022-10-16T14:24:53;2.75;;;1.75;;
74177;SDS011;62540;48.456;-4.456;2022-10-16T14:27:36;2.00;;;1.50;;
74177;SDS011;62540;48.456;-4.456;2022-10-16T14:32:36;1.25;;;1.00;;
74177;SDS011;62540;48.456;-4.456;2022-10-16T14:35:01;1.25;;;1.00;;
74177;SDS011;62540;48.456;-4.456;2022-10-16T14:37:27;0.00;;;0.00;;
74177;SDS011;62540;48.456;-4.456;2022-10-16T14:39:54;1.50;;;1.00;;
74177;SDS011;62540;48.456;-4.456;2022-10-16T14:42:21;1.00;;;1.00;;
74177;SDS011;62540;48.456;-4.456;2022-10-16T14:44:49;0.75;;;0.00;;
74177;SDS011;62540;48.456;-4.456;2022-10-16T14:47:21;1.25;;;1.25;;
74177;SDS011;62540;48.456;-4.456;2022-10-16T14:49:51;2.00;;;1.00;;
74177;SDS011;62540;48.456;-4.456;2022-10-16T14:52:20;1.75;;;1.00;;
74177;SDS011;62540;48.456;-4.456;2022-10-16T14:54:48;0.75;;;0.75;;
74177;SDS011;62540;48.456;-4.456;2022-10-16T14:57:18;1.00;;;1.00;;
74177;SDS011;62540;48.456;-4.456;2022-10-16T14:59:45;1.00;;;1.00;;
74177;SDS011;62540;48.456;-4.456;2022-10-16T15:02:34;0.75;;;0.75;;
74177;SDS011;62540;48.456;-4.456;2022-10-16T15:05:18;2.00;;;2.00;;
74177;SDS011;62540;48.456;-4.456;2022-10-16T15:07:44;2.00;;;1.00;;
74177;SDS011;62540;48.456;-4.456;2022-10-16T15:10:10;2.75;;;1.00;;
74177;SDS011;62540;48.456;-4.456;2022-10-16T15:12:36;1.00;;;1.00;;
74177;SDS011;62540;48.456;-4.456;2022-10-16T15:15:09;2.00;;;1.75;;
74177;SDS011;62540;48.456;-4.456;2022-10-16T15:17:46;1.75;;;1.00;;
74177;SDS011;62540;48.456;-4.456;2022-10-16T15:20:12;2.50;;;0.00;;
74177;SDS011;62540;48.456;-4.456;2022-10-16T15:22:38;1.00;;;1.00;;
74177;SDS011;62540;48.456;-4.456;2022-10-16T15:25:09;1.00;;;0.50;;
74177;SDS011;62540;48.456;-4.456;2022-10-16T15:27:57;1.25;;;1.00;;
74177;SDS011;62540;48.456;-4.456;2022-10-16T15:30:24;2.00;;;1.00;;
74177;SDS011;62540;48.456;-4.456;2022-10-16T15:32:49;2.25;;;1.00;;
74177;SDS011;62540;48.456;-4.456;2022-10-16T15:35:15;2.50;;;0.75;;
74177;SDS011;62540;48.456;-4.456;2022-10-16T15:37:40;2.00;;;1.25;;
74177;SDS011;62540;48.456;-4.456;2022-10-16T15:40:06;4.50;;;2.00;;
74177;SDS011;62540;48.456;-4.456;2022-10-16T15:42:31;2.00;;;0.25;;
74177;SDS011;62540;48.456;-4.456;2022-10-16T15:44:57;1.50;;;1.50;;
74177;SDS011;62540;48.456;-4.456;2022-10-16T15:47:22;2.00;;;1.00;;
74177;SDS011;62540;48.456;-4.456;2022-10-16T15:49:48;2.00;;;1.00;;
74177;SDS011;62540;48.456;-4.456;2022-10-16T15:52:13;1.00;;;1.00;;
74177;SDS011;62540;48.456;-4.456;2022-10-16T15:54:39;3.50;;;2.50;;
74177;SDS011;62540;48.456;-4.456;2022-10-16T15:57:04;1.00;;;1.00;;
74177;SDS011;62540;48.456;-4.456;2022-10-16T15:59:29;2.75;;;1.50;;
74177;SDS011;62540;48.456;-4.456;2022-10-16T16:01:55;2.25;;;2.00;;
74177;SDS011;62540;48.456;-4.456;2022-10-16T16:04:20;1.75;;;1.00;;
74177;SDS011;62540;48.456;-4.456;2022-10-16T16:06:46;3.25;;;3.25;;
74177;SDS011;62540;48.456;-4.456;2022-10-16T16:09:12;4.50;;;2.50;;
74177;SDS011;62540;48.456;-4.456;2022-10-16T16:11:38;3.25;;;0.50;;
74177;SDS011;62540;48.456;-4.456;2022-10-16T16:14:07;0.00;;;0.00;;
74177;SDS011;62540;48.456;-4.456;2022-10-16T16:16:36;2.00;;;2.00;;
74177;SDS011;62540;48.456;-4.456;2022-10-16T16:19:06;2.00;;;2.00;;
74177;SDS011;62540;48.456;-4.456;2022-10-16T16:21:32;3.00;;;3.00;;
74177;SDS011;62540;48.456;-4.456;2022-10-16T16:23:58;2.00;;;2.00;;
74177;SDS011;62540;48.456;-4.456;2022-10-16T16:28:57;3.00;;;3.00;;
74177;SDS011;62540;48.456;-4.456;2022-10-16T16:31:23;2.00;;;1.50;;
74177;SDS011;62540;48.456;-4.456;2022-10-16T16:33:50;3.25;;;1.75;;
74177;SDS011;62540;48.456;-4.456;2022-10-16T16:36:16;3.00;;;3.00;;
74177;SDS011;62540;48.456;-4.456;2022-10-16T16:38:43;2.25;;;1.50;;
74177;SDS011;62540;48.456;-4.456;2022-10-16T16:41:16;2.00;;;2.00;;
74177;SDS011;62540;48.456;-4.456;2022-10-16T16:43:46;1.75;;;1.75;;
74177;SDS011;62540;48.456;-4.456;2022-10-16T16:46:12;3.00;;;3.00;;
74177;SDS011;62540;48.456;-4.456;2022-10-16T16:48:39;4.00;;;3.00;;
74177;SDS011;62540;48.456;-4.456;2022-10-16T16:51:05;4.00;;;2.50;;
74177;SDS011;62540;48.456;-4.456;2022-10-16T16:53:43;4.25;;;4.00;;
74177;SDS011;62540;48.456;-4.456;2022-10-16T16:56:09;4.75;;;3.00;;
74177;SDS011;62540;48.456;-4.456;2022-10-16T16:58:34;4.00;;;3.25;;
74177;SDS011;62540;48.456;-4.456;2022-10-16T17:01:00;2.00;;;1.25;;
74177;SDS011;62540;48.456;-4.456;2022-10-16T17:03:30;1.50;;;1.00;;
74177;SDS011;62540;48.456;-4.456;2022-10-16T17:05:57;4.00;;;2.00;;
74177;SDS011;62540;48.456;-4.456;2022-10-16T17:08:24;2.75;;;2.00;;
74177;SDS011;62540;48.456;-4.456;2022-10-16T17:10:50;5.50;;;4.00;;
74177;SDS011;62540;48.456;-4.456;2022-10-16T17:13:18;2.50;;;2.25;;